Terminal Aerodrome Forecast
Issued by NWS

Home | Current Version | Previous Version | Text Only | Print | Product List | Glossary On
Versions: 1 2 3 4 5 6 7 8 9 10 11 12
000
FTUS42 KMLB 210500
TAFSFB
TAF
KSFB 210535Z 2106/2206 04003KT P6SM BKN080 OVC250
     FM210900 08003KT 5SM BR BKN020 OVC050
     FM211400 16004KT P6SM SCT025 OVC050
     FM211800 20007KT P6SM SCT020 OVC040
     FM220300 15004KT P6SM VCSH SCT010 BKN020 OVC040=

USA.gov is the U.S. government's official web portal to all federal, state and local government web resources and services.